createdAt,value
2023-04-17T00:02:04.144Z,16.65
2023-04-17T00:05:08.214Z,16.65
2023-04-17T00:08:09.861Z,16.65
2023-04-17T00:11:11.361Z,16.65
2023-04-17T00:14:12.953Z,16.64
2023-04-17T00:17:14.421Z,16.63
2023-04-17T00:20:15.995Z,16.64
2023-04-17T00:23:17.549Z,16.64
2023-04-17T00:26:19.594Z,16.62
2023-04-17T00:29:21.181Z,16.63
2023-04-17T00:32:22.883Z,16.62
2023-04-17T00:35:24.401Z,16.61
2023-04-17T00:38:26.123Z,16.62
2023-04-17T00:41:27.721Z,16.61
2023-04-17T00:44:29.582Z,16.61
2023-04-17T00:47:31.082Z,16.62
2023-04-17T00:50:33.600Z,16.61
2023-04-17T00:53:35.940Z,16.61
2023-04-17T00:56:38.558Z,16.60
2023-04-17T00:59:40.285Z,16.60
2023-04-17T01:02:41.881Z,16.61
2023-04-17T01:05:50.026Z,16.62
2023-04-17T01:08:51.612Z,16.60
2023-04-17T01:11:53.216Z,16.60
2023-04-17T01:14:56.596Z,16.60
2023-04-17T01:17:58.611Z,16.59
2023-04-17T01:21:01.375Z,16.58
2023-04-17T01:24:03.377Z,16.58
2023-04-17T01:27:06.894Z,16.58
2023-04-17T01:30:09.278Z,16.59
2023-04-17T01:33:17.945Z,16.57
2023-04-17T01:36:19.607Z,16.59
2023-04-17T01:39:21.624Z,16.58
2023-04-17T01:42:23.270Z,16.57
2023-04-17T01:45:24.791Z,16.57
2023-04-17T01:48:26.307Z,16.58
2023-04-17T01:51:27.923Z,16.56
2023-04-17T01:54:29.744Z,16.56
2023-04-17T01:57:33.103Z,16.56
2023-04-17T02:00:34.693Z,16.55
2023-04-17T02:03:36.444Z,16.55
2023-04-17T02:06:38.057Z,16.55
2023-04-17T02:09:39.591Z,16.53
2023-04-17T02:12:42.396Z,16.55
2023-04-17T02:15:44.518Z,16.55
2023-04-17T02:18:48.636Z,16.54
2023-04-17T02:21:50.115Z,16.55
2023-04-17T02:24:51.605Z,16.53
2023-04-17T02:27:56.109Z,16.55
2023-04-17T02:30:59.022Z,16.53
2023-04-17T02:34:00.625Z,16.54
2023-04-17T02:37:02.406Z,16.53
2023-04-17T02:40:07.282Z,16.55
2023-04-17T02:43:08.845Z,16.53
2023-04-17T02:46:11.197Z,16.53
2023-04-17T02:49:12.875Z,16.53
2023-04-17T02:52:14.660Z,16.52
2023-04-17T02:55:16.786Z,16.52
2023-04-17T02:58:18.480Z,16.51
2023-04-17T03:01:20.079Z,16.51
2023-04-17T03:04:22.011Z,16.51
2023-04-17T03:07:23.799Z,16.51
2023-04-17T03:10:25.698Z,16.52
2023-04-17T03:13:27.410Z,16.53
2023-04-17T03:16:29.046Z,16.53
2023-04-17T03:19:34.496Z,16.53
2023-04-17T03:22:36.631Z,16.54
2023-04-17T03:25:39.816Z,16.55
2023-04-17T03:28:42.020Z,16.55
2023-04-17T03:31:43.527Z,16.56
2023-04-17T03:34:45.059Z,16.59
2023-04-17T03:37:46.678Z,16.62
2023-04-17T03:40:48.518Z,16.65
2023-04-17T03:43:50.206Z,16.66
2023-04-17T03:46:51.662Z,16.66
2023-04-17T03:49:53.515Z,16.67
2023-04-17T03:52:55.815Z,16.68
2023-04-17T03:55:59.604Z,16.68
2023-04-17T03:59:05.978Z,16.69
2023-04-17T04:02:12.426Z,16.69
2023-04-17T04:05:15.086Z,16.69
2023-04-17T04:08:17.790Z,16.69
2023-04-17T04:11:23.810Z,16.70
2023-04-17T04:14:25.615Z,16.70
2023-04-17T04:17:27.192Z,16.69
2023-04-17T04:20:28.943Z,16.69
2023-04-17T04:23:45.469Z,16.68
2023-04-17T04:26:49.667Z,16.68
2023-04-17T04:29:51.999Z,16.68
2023-04-17T04:32:56.888Z,16.68
2023-04-17T04:36:01.374Z,16.65
2023-04-17T04:39:05.636Z,16.65
2023-04-17T04:42:11.059Z,16.65
2023-04-17T04:45:24.708Z,16.64
2023-04-17T04:48:28.706Z,16.64
2023-04-17T04:51:31.833Z,16.64
2023-04-17T04:54:33.520Z,16.63
2023-04-17T04:57:36.652Z,16.63
2023-04-17T05:00:39.048Z,16.63
2023-04-17T05:03:40.960Z,16.65
2023-04-17T05:06:44.779Z,16.66
2023-04-17T05:09:46.334Z,16.67
2023-04-17T05:12:50.204Z,16.68
2023-04-17T05:15:52.139Z,16.70
2023-04-17T05:18:58.988Z,16.72
2023-04-17T05:22:32.846Z,16.75
2023-04-17T05:25:43.112Z,16.76
2023-04-17T05:28:45.297Z,16.77
2023-04-17T05:31:51.804Z,16.78
2023-04-17T05:35:11.064Z,16.78
2023-04-17T05:38:14.175Z,16.78
2023-04-17T05:41:15.722Z,16.79
2023-04-17T05:44:18.909Z,16.78
2023-04-17T05:47:20.575Z,16.79
2023-04-17T05:50:22.108Z,16.79
2023-04-17T05:53:23.862Z,16.80
2023-04-17T05:56:30.023Z,16.79
2023-04-17T05:59:31.665Z,16.78
2023-04-17T06:02:34.268Z,16.79
2023-04-17T06:05:36.106Z,16.78
2023-04-17T06:08:38.087Z,16.76
2023-04-17T06:11:39.694Z,16.77
2023-04-17T06:14:41.558Z,16.76
2023-04-17T06:17:44.367Z,16.75
2023-04-17T06:20:46.359Z,16.75
2023-04-17T06:23:48.232Z,16.75
2023-04-17T06:26:51.659Z,16.73
2023-04-17T06:29:53.207Z,16.73
2023-04-17T06:32:55.143Z,16.74
2023-04-17T06:35:56.678Z,16.72
2023-04-17T06:39:05.681Z,16.71
2023-04-17T06:42:07.713Z,16.71
2023-04-17T06:45:13.821Z,16.69
2023-04-17T06:48:15.352Z,16.68
2023-04-17T06:51:20.595Z,16.68
2023-04-17T06:54:22.398Z,16.67
2023-04-17T06:57:24.011Z,16.67
2023-04-17T07:00:25.693Z,16.65
2023-04-17T07:03:27.278Z,16.65
2023-04-17T07:06:29.132Z,16.65
2023-04-17T07:09:30.633Z,16.64
2023-04-17T07:12:32.895Z,16.63
2023-04-17T07:15:34.403Z,16.63
2023-04-17T07:18:35.991Z,16.63
2023-04-17T07:21:37.717Z,16.63
2023-04-17T07:24:39.253Z,16.63
2023-04-17T07:27:40.749Z,16.61
2023-04-17T07:30:42.637Z,16.61
2023-04-17T07:33:44.276Z,16.60
2023-04-17T07:36:47.182Z,16.61
2023-04-17T07:39:50.240Z,16.60
2023-04-17T07:42:52.741Z,16.58
2023-04-17T07:45:55.535Z,16.59
2023-04-17T07:48:57.052Z,16.57
2023-04-17T07:51:58.605Z,16.56
2023-04-17T07:55:00.261Z,16.58
2023-04-17T07:58:03.749Z,16.58
2023-04-17T08:01:08.259Z,16.58
2023-04-17T08:04:10.113Z,16.59
2023-04-17T08:07:12.725Z,16.58
2023-04-17T08:10:14.424Z,16.57
2023-04-17T08:13:16.270Z,16.57
2023-04-17T08:16:17.816Z,16.58
2023-04-17T08:19:19.440Z,16.56
2023-04-17T08:22:24.044Z,16.56
2023-04-17T08:25:25.653Z,16.55
2023-04-17T08:28:27.220Z,16.54
2023-04-17T08:31:28.974Z,16.53
2023-04-17T08:34:31.968Z,16.53
2023-04-17T08:37:35.537Z,16.53
2023-04-17T08:40:37.720Z,16.52
2023-04-17T08:43:40.190Z,16.52
2023-04-17T08:46:42.094Z,16.51
2023-04-17T08:49:45.852Z,16.50
2023-04-17T08:52:49.277Z,16.52
2023-04-17T08:55:50.771Z,16.49
2023-04-17T08:58:52.335Z,16.50
2023-04-17T09:02:04.429Z,16.51
2023-04-17T09:05:18.790Z,16.51
2023-04-17T09:08:23.941Z,16.49
2023-04-17T09:11:26.267Z,16.49
2023-04-17T09:14:31.467Z,16.50
2023-04-17T09:17:37.791Z,16.49
2023-04-17T09:20:48.536Z,16.48
2023-04-17T09:23:58.837Z,16.49
2023-04-17T09:27:27.330Z,16.48
2023-04-17T09:30:36.799Z,16.48
2023-04-17T09:33:55.856Z,16.48
2023-04-17T09:36:57.419Z,16.46
2023-04-17T09:40:00.635Z,16.47
2023-04-17T09:43:09.481Z,16.47
2023-04-17T09:46:11.498Z,16.45
2023-04-17T09:49:16.082Z,16.46
2023-04-17T09:52:18.404Z,16.46
2023-04-17T09:55:21.554Z,16.47
2023-04-17T09:58:23.390Z,16.48
2023-04-17T10:01:25.550Z,16.47
2023-04-17T10:04:29.178Z,16.49
2023-04-17T10:07:31.849Z,16.49
2023-04-17T10:10:34.808Z,16.49
2023-04-17T10:13:42.506Z,16.50
2023-04-17T10:16:44.437Z,16.48
2023-04-17T10:19:49.107Z,16.48
2023-04-17T10:22:54.849Z,16.48
2023-04-17T10:26:25.281Z,16.49
2023-04-17T10:30:12.931Z,16.49
2023-04-17T10:33:15.744Z,16.45
2023-04-17T10:36:39.308Z,16.48
2023-04-17T10:39:51.978Z,16.47
2023-04-17T10:43:04.279Z,16.47
2023-04-17T10:46:10.185Z,16.47
2023-04-17T10:49:14.293Z,16.46
2023-04-17T10:52:41.345Z,16.46
2023-04-17T10:55:52.364Z,16.46
2023-04-17T10:59:01.093Z,16.46
2023-04-17T11:02:04.869Z,16.44
2023-04-17T11:05:07.660Z,16.44
2023-04-17T11:08:09.971Z,16.45
2023-04-17T11:11:14.591Z,16.45
2023-04-17T11:14:22.440Z,16.46
2023-04-17T11:17:24.036Z,16.43
2023-04-17T11:20:27.955Z,16.46
2023-04-17T11:23:33.944Z,16.46
2023-04-17T11:26:48.117Z,16.46
2023-04-17T11:29:49.660Z,16.46
2023-04-17T11:32:52.513Z,16.46
2023-04-17T11:35:54.243Z,16.46
2023-04-17T11:38:57.126Z,16.47
2023-04-17T11:41:58.684Z,16.47
2023-04-17T11:45:06.702Z,16.48
2023-04-17T11:48:12.896Z,16.48
2023-04-17T11:51:18.013Z,16.49
2023-04-17T11:54:26.964Z,16.50
2023-04-17T11:57:28.491Z,16.48
2023-04-17T12:00:30.581Z,16.49
2023-04-17T12:03:35.720Z,16.50
2023-04-17T12:06:38.100Z,16.50
2023-04-17T12:09:39.633Z,16.49
2023-04-17T12:12:41.214Z,16.50
2023-04-17T12:15:42.771Z,16.51
2023-04-17T12:18:45.740Z,16.51
2023-04-17T12:21:51.950Z,16.52
2023-04-17T12:24:53.475Z,16.52
2023-04-17T12:27:56.985Z,16.51
2023-04-17T12:30:58.597Z,16.52
2023-04-17T12:34:00.279Z,16.52
2023-04-17T12:37:01.759Z,16.54
2023-04-17T12:40:04.005Z,16.53
2023-04-17T12:43:06.586Z,16.54
2023-04-17T12:46:08.171Z,16.55
2023-04-17T12:49:10.131Z,16.55
2023-04-17T12:52:11.784Z,16.55
2023-04-17T12:55:13.395Z,16.56
2023-04-17T12:58:15.163Z,16.56
2023-04-17T13:01:16.742Z,16.56
2023-04-17T13:04:18.975Z,16.58
2023-04-17T13:07:20.847Z,16.55
2023-04-17T13:10:22.471Z,16.57
2023-04-17T13:13:23.974Z,16.57
2023-04-17T13:16:26.040Z,16.59
2023-04-17T13:19:27.549Z,16.58
2023-04-17T13:22:29.015Z,16.57
2023-04-17T13:25:31.484Z,16.58
2023-04-17T13:28:32.976Z,16.57
2023-04-17T13:31:34.757Z,16.57
2023-04-17T13:34:36.279Z,16.57
2023-04-17T13:37:37.766Z,16.58
2023-04-17T13:40:40.745Z,16.57
2023-04-17T13:43:42.218Z,16.58
2023-04-17T13:46:44.179Z,16.59
2023-04-17T13:49:45.810Z,16.59
2023-04-17T13:52:47.292Z,16.59
2023-04-17T13:55:49.269Z,16.59
2023-04-17T13:58:52.175Z,16.59
2023-04-17T14:01:53.877Z,16.61
2023-04-17T14:04:55.489Z,16.61
2023-04-17T14:07:57.079Z,16.61
2023-04-17T14:10:58.611Z,16.60
2023-04-17T14:14:00.220Z,16.60
2023-04-17T14:17:01.839Z,16.61
2023-04-17T14:20:04.032Z,16.62
2023-04-17T14:23:05.488Z,16.61
2023-04-17T14:26:07.618Z,16.61
2023-04-17T14:29:10.622Z,16.60
2023-04-17T14:32:12.532Z,16.61
2023-04-17T14:35:14.033Z,16.61
2023-04-17T14:38:15.540Z,16.63
2023-04-17T14:41:17.442Z,16.62
2023-04-17T14:44:20.295Z,16.62
2023-04-17T14:47:21.840Z,16.63
2023-04-17T14:50:23.381Z,16.63
2023-04-17T14:53:24.833Z,16.64
2023-04-17T14:56:26.453Z,16.66
2023-04-17T14:59:28.420Z,16.67
2023-04-17T15:02:38.038Z,16.67
2023-04-17T15:05:39.835Z,16.70
2023-04-17T15:08:41.554Z,16.71
2023-04-17T15:11:43.075Z,16.75
2023-04-17T15:14:45.030Z,16.77
2023-04-17T15:17:46.516Z,16.79
2023-04-17T15:20:48.166Z,16.80
2023-04-17T15:23:49.653Z,16.82
2023-04-17T15:26:51.226Z,16.85
2023-04-17T15:29:52.744Z,16.86
2023-04-17T15:32:54.315Z,16.86
2023-04-17T15:35:58.098Z,16.88
2023-04-17T15:39:00.746Z,16.87
2023-04-17T15:42:02.355Z,16.88
2023-04-17T15:45:04.444Z,16.89
2023-04-17T15:48:06.096Z,16.90
2023-04-17T15:51:07.910Z,16.91
2023-04-17T15:54:11.712Z,16.90
2023-04-17T15:57:13.264Z,16.91
2023-04-17T16:00:15.275Z,16.91
2023-04-17T16:03:16.946Z,16.91
2023-04-17T16:06:20.366Z,16.89
2023-04-17T16:09:24.289Z,16.89
2023-04-17T16:12:27.981Z,16.88
2023-04-17T16:15:30.378Z,16.87
2023-04-17T16:18:31.831Z,16.85
2023-04-17T16:21:33.350Z,16.84
2023-04-17T16:24:34.804Z,16.85
2023-04-17T16:27:37.014Z,16.85
2023-04-17T16:30:38.589Z,16.83
2023-04-17T16:33:40.675Z,16.83
2023-04-17T16:36:45.380Z,16.82
2023-04-17T16:39:47.217Z,16.82
2023-04-17T16:42:48.762Z,16.82
2023-04-17T16:45:50.300Z,16.81
2023-04-17T16:48:51.854Z,16.80
2023-04-17T16:51:53.843Z,16.80
2023-04-17T16:54:55.300Z,16.81
2023-04-17T16:57:59.894Z,16.80
2023-04-17T17:01:01.502Z,16.79
2023-04-17T17:04:03.076Z,16.78
2023-04-17T17:07:04.780Z,16.77
2023-04-17T17:10:07.166Z,16.77
2023-04-17T17:13:08.698Z,16.77
2023-04-17T17:16:10.239Z,16.77
2023-04-17T17:19:11.896Z,16.77
2023-04-17T17:22:13.505Z,16.77
2023-04-17T17:25:14.979Z,16.76
2023-04-17T17:28:16.501Z,16.76
2023-04-17T17:31:18.214Z,16.76
2023-04-17T17:34:26.542Z,16.77
2023-04-17T17:37:28.656Z,16.77
2023-04-17T17:40:30.292Z,16.76
2023-04-17T17:43:31.767Z,16.77
2023-04-17T17:46:35.684Z,16.77
2023-04-17T17:49:37.356Z,16.79
2023-04-17T17:52:38.852Z,16.79
2023-04-17T17:55:40.422Z,16.79
2023-04-17T17:58:41.901Z,16.79
2023-04-17T18:01:43.482Z,16.80
2023-04-17T18:04:45.116Z,16.81
2023-04-17T18:07:46.612Z,16.82
2023-04-17T18:10:48.125Z,16.83
2023-04-17T18:13:49.639Z,16.84
2023-04-17T18:16:51.291Z,16.85
2023-04-17T18:19:52.814Z,16.86
2023-04-17T18:22:54.314Z,16.85
2023-04-17T18:25:57.743Z,16.85
2023-04-17T18:28:59.328Z,16.85
2023-04-17T18:32:00.821Z,16.85
2023-04-17T18:35:02.803Z,16.86
2023-04-17T18:38:04.324Z,16.87
2023-04-17T18:41:05.805Z,16.88
2023-04-17T18:44:07.304Z,16.88
2023-04-17T18:47:08.774Z,16.90
2023-04-17T18:50:11.332Z,16.90
2023-04-17T18:53:12.926Z,16.90
2023-04-17T18:56:15.091Z,16.92
2023-04-17T18:59:16.785Z,16.92
2023-04-17T19:02:18.287Z,16.92
2023-04-17T19:05:21.309Z,16.93
2023-04-17T19:08:22.822Z,16.94
2023-04-17T19:11:24.595Z,16.94
2023-04-17T19:14:26.131Z,16.95
2023-04-17T19:17:27.640Z,16.95
2023-04-17T19:20:29.110Z,16.97
2023-04-17T19:23:30.908Z,16.98
2023-04-17T19:26:32.421Z,16.98
2023-04-17T19:29:33.876Z,16.97
2023-04-17T19:32:35.468Z,16.97
2023-04-17T19:35:37.122Z,16.97
2023-04-17T19:38:38.608Z,16.98
2023-04-17T19:41:40.087Z,16.98
2023-04-17T19:44:41.529Z,16.98
2023-04-17T19:47:43.025Z,16.97
2023-04-17T19:50:44.590Z,16.98
2023-04-17T19:53:47.654Z,16.99
2023-04-17T19:56:49.507Z,16.98
2023-04-17T19:59:50.969Z,16.99
2023-04-17T20:02:52.503Z,17.00
2023-04-17T20:05:54.831Z,17.01
2023-04-17T20:08:58.342Z,17.02
2023-04-17T20:11:59.972Z,17.04
2023-04-17T20:15:01.456Z,17.05
2023-04-17T20:18:03.073Z,17.08
2023-04-17T20:21:05.786Z,17.10
2023-04-17T20:24:07.335Z,17.12
2023-04-17T20:27:08.766Z,17.14
2023-04-17T20:30:14.375Z,17.16
2023-04-17T20:33:15.904Z,17.17
2023-04-17T20:36:17.480Z,17.20
2023-04-17T20:39:19.002Z,17.22
2023-04-17T20:42:20.617Z,17.25
2023-04-17T20:45:22.086Z,17.27
2023-04-17T20:48:24.997Z,17.28
2023-04-17T20:51:27.235Z,17.29
2023-04-17T20:54:29.338Z,17.30
2023-04-17T20:57:30.903Z,17.29
2023-04-17T21:00:33.693Z,17.31
2023-04-17T21:03:35.345Z,17.31
2023-04-17T21:06:36.816Z,17.32
2023-04-17T21:09:38.250Z,17.32
2023-04-17T21:12:39.721Z,17.34
2023-04-17T21:15:42.187Z,17.36
2023-04-17T21:18:43.652Z,17.36
2023-04-17T21:21:45.138Z,17.37
2023-04-17T21:24:46.589Z,17.38
2023-04-17T21:27:48.153Z,17.38
2023-04-17T21:30:49.608Z,17.39
2023-04-17T21:33:51.223Z,17.41
2023-04-17T21:36:55.881Z,17.43
2023-04-17T21:39:57.506Z,17.42
2023-04-17T21:43:00.527Z,17.43
2023-04-17T21:46:02.210Z,17.42
2023-04-17T21:49:04.254Z,17.42
2023-04-17T21:52:05.697Z,17.41
2023-04-17T21:55:07.731Z,17.41
2023-04-17T21:58:09.209Z,17.41
2023-04-17T22:01:10.840Z,17.39
2023-04-17T22:04:12.689Z,17.39
2023-04-17T22:07:14.345Z,17.39
2023-04-17T22:10:15.827Z,17.39
2023-04-17T22:13:17.446Z,17.38
2023-04-17T22:16:18.980Z,17.38
2023-04-17T22:19:20.631Z,17.38
2023-04-17T22:22:22.086Z,17.38
2023-04-17T22:25:23.615Z,17.38
2023-04-17T22:28:28.122Z,17.38
2023-04-17T22:31:29.753Z,17.38
2023-04-17T22:34:31.328Z,17.38
2023-04-17T22:37:32.784Z,17.38
2023-04-17T22:40:34.846Z,17.38
2023-04-17T22:43:36.383Z,17.38
2023-04-17T22:46:38.077Z,17.39
2023-04-17T22:49:40.551Z,17.38
2023-04-17T22:52:42.082Z,17.38
2023-04-17T22:55:43.558Z,17.38
2023-04-17T22:58:45.050Z,17.38
2023-04-17T23:01:46.592Z,17.37
2023-04-17T23:04:48.153Z,17.38
2023-04-17T23:07:49.746Z,17.38
2023-04-17T23:10:59.590Z,17.39
2023-04-17T23:14:01.783Z,17.37
2023-04-17T23:17:03.266Z,17.37
2023-04-17T23:20:05.439Z,17.39
2023-04-17T23:23:06.927Z,17.39
2023-04-17T23:26:08.634Z,17.39
2023-04-17T23:29:10.128Z,17.39
2023-04-17T23:32:11.726Z,17.39
2023-04-17T23:35:13.574Z,17.38
2023-04-17T23:38:15.213Z,17.39
2023-04-17T23:41:16.702Z,17.37
2023-04-17T23:44:18.176Z,17.37
2023-04-17T23:47:19.649Z,17.37
2023-04-17T23:50:21.220Z,17.37
2023-04-17T23:53:22.783Z,17.35
2023-04-17T23:56:24.254Z,17.34
2023-04-17T23:59:25.763Z,17.34
